createdAt,value
2023-03-30T00:01:52.023Z,3.20
2023-03-30T00:05:24.083Z,4.30
2023-03-30T00:09:13.055Z,3.90
2023-03-30T00:12:46.052Z,3.90
2023-03-30T00:16:11.051Z,5.10
2023-03-30T00:19:38.008Z,4.40
2023-03-30T00:23:25.085Z,5.50
2023-03-30T00:26:51.042Z,6.00
2023-03-30T00:30:27.033Z,3.70
2023-03-30T00:33:53.992Z,4.50
2023-03-30T00:37:44.983Z,4.70
2023-03-30T00:41:14.019Z,4.20
2023-03-30T00:48:00.169Z,6.30
2023-03-30T00:51:56.991Z,5.10
2023-03-30T00:55:28.253Z,5.50
2023-03-30T00:58:59.960Z,5.40
2023-03-30T01:02:32.097Z,6.70
2023-03-30T01:05:44.887Z,4.90
2023-03-30T01:08:56.028Z,6.30
2023-03-30T01:12:10.983Z,6.50
2023-03-30T01:15:44.064Z,5.80
2023-03-30T01:19:07.009Z,6.90
2023-03-30T01:22:38.034Z,7.20
2023-03-30T01:25:56.023Z,8.90
2023-03-30T01:29:10.001Z,6.90
2023-03-30T01:32:28.040Z,5.80
2023-03-30T01:35:49.114Z,6.20
2023-03-30T01:42:30.020Z,7.40
2023-03-30T01:45:53.986Z,5.00
2023-03-30T01:49:15.032Z,5.50
2023-03-30T01:52:55.990Z,7.10
2023-03-30T01:56:28.049Z,4.50
2023-03-30T02:00:07.957Z,8.00
2023-03-30T02:03:15.143Z,5.30
2023-03-30T02:06:43.963Z,7.70
2023-03-30T02:09:56.003Z,5.50
2023-03-30T02:13:11.987Z,7.20
2023-03-30T02:16:50.003Z,6.00
2023-03-30T02:20:14.977Z,4.40
2023-03-30T02:23:46.963Z,6.30
2023-03-30T02:27:02.093Z,4.00
2023-03-30T02:30:44.951Z,6.10
2023-03-30T02:34:10.015Z,7.50
2023-03-30T02:37:21.032Z,4.00
2023-03-30T02:40:57.016Z,5.30
2023-03-30T02:44:32.076Z,4.80
2023-03-30T02:48:19.968Z,4.00
2023-03-30T02:51:46.978Z,4.10
2023-03-30T02:58:46.119Z,3.70
2023-03-30T03:02:29.026Z,5.00
2023-03-30T03:06:02.178Z,5.00
2023-03-30T03:09:45.984Z,5.90
2023-03-30T03:13:02.056Z,6.40
2023-03-30T03:16:33.943Z,9.60
2023-03-30T03:19:45.986Z,6.80
2023-03-30T03:22:46.951Z,4.20
2023-03-30T03:26:13.377Z,5.50
2023-03-30T03:29:27.067Z,4.50
2023-03-30T03:32:46.644Z,4.60
2023-03-30T03:36:24.028Z,8.50
2023-03-30T03:39:30.036Z,5.60
2023-03-30T03:42:49.960Z,3.70
2023-03-30T03:49:40.005Z,5.30
2023-03-30T03:53:14.001Z,5.10
2023-03-30T03:56:15.041Z,5.90
2023-03-30T03:59:58.993Z,5.20
2023-03-30T04:03:30.967Z,4.20
2023-03-30T04:06:51.969Z,4.10
2023-03-30T04:10:20.308Z,3.70
2023-03-30T04:13:26.940Z,4.00
2023-03-30T04:16:37.026Z,5.10
2023-03-30T04:19:47.145Z,6.70
2023-03-30T04:22:46.420Z,3.70
2023-03-30T04:26:17.990Z,5.50
2023-03-30T04:29:23.894Z,6.00
2023-03-30T04:33:07.182Z,6.00
2023-03-30T04:36:28.056Z,3.30
2023-03-30T04:40:30.058Z,6.30
2023-03-30T04:43:55.148Z,8.00
2023-03-30T04:47:20.029Z,6.60
2023-03-30T04:53:15.590Z,3.90
2023-03-30T04:56:04.457Z,5.20
2023-03-30T04:58:48.617Z,5.10
2023-03-30T05:06:24.110Z,5.80
2023-03-30T05:10:44.533Z,5.30
2023-03-30T05:14:26.875Z,3.80
2023-03-30T05:17:35.258Z,6.20
2023-03-30T05:21:30.275Z,7.80
2023-03-30T05:25:07.700Z,7.70
2023-03-30T05:27:55.661Z,4.70
2023-03-30T05:30:35.387Z,8.60
2023-03-30T05:33:15.567Z,7.20
2023-03-30T05:36:00.094Z,12.30
2023-03-30T05:38:47.876Z,8.10
2023-03-30T05:41:28.262Z,10.90
2023-03-30T05:44:04.845Z,10.30
2023-03-30T05:46:49.230Z,6.60
2023-03-30T05:53:10.958Z,8.40
2023-03-30T05:58:37.038Z,5.90
2023-03-30T06:01:17.670Z,6.60
2023-03-30T06:03:46.076Z,12.50
2023-03-30T06:06:14.873Z,14.80
2023-03-30T06:08:44.987Z,10.60
2023-03-30T06:11:16.103Z,9.30
2023-03-30T06:13:47.065Z,13.80
2023-03-30T06:16:15.138Z,8.70
2023-03-30T06:18:48.268Z,9.60
2023-03-30T06:21:16.276Z,9.20
2023-03-30T06:23:59.569Z,6.60
2023-03-30T06:26:29.555Z,8.60
2023-03-30T06:28:58.577Z,10.90
2023-03-30T06:31:26.905Z,8.90
2023-03-30T06:34:08.499Z,13.10
2023-03-30T06:36:44.517Z,14.20
2023-03-30T06:39:15.598Z,13.40
2023-03-30T06:41:46.040Z,8.30
2023-03-30T06:44:28.124Z,10.70
2023-03-30T06:47:06.377Z,5.60
2023-03-30T06:49:33.365Z,9.90
2023-03-30T06:52:22.723Z,8.40
2023-03-30T06:54:54.537Z,11.40
2023-03-30T07:12:54.976Z,13.90
2023-03-30T07:35:00.212Z,16.10
2023-03-30T07:38:24.240Z,11.70
2023-03-30T07:48:37.660Z,12.70
2023-03-30T07:52:37.211Z,19.40
2023-03-30T07:56:26.544Z,21.00
2023-03-30T07:59:44.095Z,18.50
2023-03-30T08:03:36.431Z,31.30
2023-03-30T08:07:44.151Z,26.80
2023-03-30T08:22:00.254Z,20.40
2023-03-30T08:48:47.377Z,9.70
2023-03-30T08:52:33.339Z,11.20
2023-03-30T08:56:06.714Z,6.00
2023-03-30T09:00:04.517Z,11.60
2023-03-30T09:04:06.744Z,4.30
2023-03-30T09:07:17.951Z,8.50
2023-03-30T09:10:51.733Z,9.10
2023-03-30T09:18:03.398Z,4.10
2023-03-30T09:22:00.176Z,3.60
2023-03-30T09:30:06.609Z,9.40
2023-03-30T09:37:27.327Z,5.20
2023-03-30T09:41:18.526Z,3.80
2023-03-30T09:44:44.600Z,5.70
2023-03-30T09:48:27.309Z,5.00
2023-03-30T09:55:39.468Z,3.50
2023-03-30T10:06:34.151Z,3.80
2023-03-30T10:13:17.333Z,4.00
2023-03-30T10:31:19.463Z,2.90
2023-03-30T10:39:37.187Z,5.20
2023-03-30T10:43:41.315Z,4.50
2023-03-30T10:47:28.477Z,8.50
2023-03-30T11:12:21.856Z,4.60
2023-03-30T11:19:33.318Z,3.20
2023-03-30T11:23:36.257Z,2.70
2023-03-30T11:27:34.166Z,5.10
2023-03-30T11:30:35.608Z,5.00
2023-03-30T11:34:26.553Z,7.60
2023-03-30T11:41:00.295Z,4.50
2023-03-30T11:44:53.959Z,8.00
2023-03-30T11:55:12.671Z,5.00
2023-03-30T12:09:18.338Z,3.20
2023-03-30T12:24:42.326Z,4.40
2023-03-30T12:42:10.538Z,6.70
2023-03-30T12:45:39.975Z,4.40
2023-03-30T12:49:23.080Z,8.00
2023-03-30T12:53:48.342Z,3.40
2023-03-30T13:01:03.176Z,8.00
2023-03-30T13:04:17.657Z,3.40
2023-03-30T13:07:46.948Z,5.20
2023-03-30T13:11:01.173Z,4.60
2023-03-30T13:17:47.449Z,8.00
2023-03-30T13:24:24.863Z,6.90
2023-03-30T13:34:04.670Z,5.50
2023-03-30T13:40:10.545Z,14.20
2023-03-30T13:43:36.834Z,6.90
2023-03-30T13:46:39.900Z,6.90
2023-03-30T13:49:35.895Z,3.10
2023-03-30T13:52:16.150Z,4.30
2023-03-30T13:54:46.832Z,7.30
2023-03-30T13:57:22.830Z,8.80
2023-03-30T14:00:01.484Z,7.50
2023-03-30T14:02:49.510Z,3.00
2023-03-30T14:05:27.510Z,8.30
2023-03-30T14:07:58.251Z,5.60
2023-03-30T14:10:27.564Z,6.10
2023-03-30T14:12:58.325Z,5.10
2023-03-30T14:15:40.917Z,4.50
2023-03-30T14:18:28.293Z,6.00
2023-03-30T14:21:01.267Z,5.00
2023-03-30T14:23:42.755Z,11.00
2023-03-30T14:26:27.930Z,9.50
2023-03-30T14:28:59.171Z,3.90
2023-03-30T14:31:28.027Z,8.00
2023-03-30T14:33:56.963Z,8.20
2023-03-30T14:36:26.212Z,9.90
2023-03-30T14:38:55.016Z,14.70
2023-03-30T14:41:27.871Z,5.00
2023-03-30T14:44:05.056Z,8.50
2023-03-30T14:46:56.596Z,6.70
2023-03-30T14:49:29.678Z,7.50
2023-03-30T14:52:52.463Z,4.00
2023-03-30T14:56:43.208Z,8.30
2023-03-30T14:59:23.958Z,5.10
2023-03-30T15:02:30.158Z,5.10
2023-03-30T15:06:19.161Z,3.80
2023-03-30T15:08:49.106Z,3.90
2023-03-30T15:11:24.297Z,4.40
2023-03-30T15:13:56.309Z,6.30
2023-03-30T15:17:22.897Z,5.50
2023-03-30T15:20:57.184Z,4.80
2023-03-30T15:24:32.238Z,5.50
2023-03-30T15:28:10.125Z,6.40
2023-03-30T15:31:38.287Z,6.30
2023-03-30T15:35:27.163Z,4.40
2023-03-30T15:39:13.418Z,6.60
2023-03-30T15:43:22.641Z,9.50
2023-03-30T15:47:17.094Z,10.20
2023-03-30T15:50:42.147Z,5.40
2023-03-30T15:54:16.406Z,4.60
2023-03-30T15:57:48.124Z,4.80
2023-03-30T16:01:18.783Z,5.30
2023-03-30T16:05:05.254Z,7.30
2023-03-30T16:09:07.289Z,15.90
2023-03-30T16:12:18.166Z,4.20
2023-03-30T16:16:22.171Z,8.60
2023-03-30T16:23:59.152Z,10.90
2023-03-30T16:27:04.974Z,7.60
2023-03-30T16:29:33.566Z,9.60
2023-03-30T16:32:01.868Z,3.90
2023-03-30T16:34:29.823Z,6.20
2023-03-30T16:36:57.760Z,7.40
2023-03-30T16:39:28.129Z,9.00
2023-03-30T16:41:56.876Z,5.50
2023-03-30T16:44:25.447Z,9.00
2023-03-30T16:46:53.347Z,11.30
2023-03-30T16:49:24.974Z,9.70
2023-03-30T16:51:55.403Z,7.10
2023-03-30T16:54:31.241Z,12.10
2023-03-30T16:57:02.009Z,16.20
2023-03-30T16:59:32.898Z,8.20
2023-03-30T17:02:01.014Z,8.80
2023-03-30T17:04:29.028Z,9.40
2023-03-30T17:06:56.964Z,6.60
2023-03-30T17:09:25.531Z,8.30
2023-03-30T17:11:53.402Z,10.50
2023-03-30T17:14:23.238Z,6.60
2023-03-30T17:16:51.231Z,7.90
2023-03-30T17:19:19.345Z,7.50
2023-03-30T17:21:47.217Z,6.70
2023-03-30T17:24:16.908Z,8.40
2023-03-30T17:26:44.927Z,7.10
2023-03-30T17:29:19.815Z,6.60
2023-03-30T17:31:49.488Z,7.50
2023-03-30T17:34:17.400Z,6.80
2023-03-30T17:36:45.805Z,7.90
2023-03-30T17:39:14.834Z,7.30
2023-03-30T17:41:42.840Z,8.10
2023-03-30T17:44:10.671Z,6.50
2023-03-30T17:46:39.337Z,7.90
2023-03-30T17:49:15.034Z,8.10
2023-03-30T17:51:42.992Z,5.60
2023-03-30T17:54:11.031Z,9.60
2023-03-30T17:56:38.882Z,9.00
2023-03-30T17:59:11.548Z,11.30
2023-03-30T18:01:40.066Z,6.70
2023-03-30T18:04:08.190Z,7.90
2023-03-30T18:06:36.151Z,8.50
2023-03-30T18:09:04.358Z,4.00
2023-03-30T18:11:32.557Z,6.60
2023-03-30T18:14:01.195Z,10.40
2023-03-30T18:16:33.151Z,7.80
2023-03-30T18:19:02.403Z,5.00
2023-03-30T18:21:30.984Z,6.30
2023-03-30T18:23:59.372Z,7.60
2023-03-30T18:26:28.559Z,6.60
2023-03-30T18:28:56.506Z,9.50
2023-03-30T18:31:24.819Z,13.20
2023-03-30T18:33:53.517Z,9.50
2023-03-30T18:36:22.533Z,13.40
2023-03-30T18:38:50.430Z,12.30
2023-03-30T18:41:18.350Z,9.40
2023-03-30T18:44:23.136Z,10.70
2023-03-30T18:47:26.424Z,11.60
2023-03-30T18:49:54.209Z,10.90
2023-03-30T18:52:22.198Z,13.40
2023-03-30T18:54:50.407Z,10.10
2023-03-30T18:57:18.338Z,8.90
2023-03-30T18:59:46.167Z,19.00
2023-03-30T19:02:14.060Z,10.40
2023-03-30T19:04:42.018Z,12.20
2023-03-30T19:07:11.570Z,12.60
2023-03-30T19:09:43.452Z,12.20
2023-03-30T19:12:14.164Z,13.10
2023-03-30T19:14:46.492Z,15.10
2023-03-30T19:17:15.748Z,13.30
2023-03-30T19:19:43.553Z,19.20
2023-03-30T19:22:12.399Z,17.20
2023-03-30T19:24:40.232Z,18.70
2023-03-30T19:27:10.400Z,14.40
2023-03-30T19:29:39.623Z,13.30
2023-03-30T19:32:08.086Z,22.90
2023-03-30T19:34:37.170Z,11.60
2023-03-30T19:37:05.072Z,12.80
2023-03-30T19:39:32.957Z,18.70
2023-03-30T19:42:00.851Z,15.70
2023-03-30T19:44:28.756Z,12.50
2023-03-30T19:46:56.681Z,14.90
2023-03-30T19:49:24.636Z,13.30
2023-03-30T19:51:54.986Z,15.90
2023-03-30T19:54:22.848Z,22.70
2023-03-30T19:56:51.347Z,22.40
2023-03-30T19:59:22.297Z,20.80
2023-03-30T20:01:50.285Z,18.30
2023-03-30T20:04:18.117Z,19.10
2023-03-30T20:06:46.099Z,36.40
2023-03-30T20:09:13.931Z,26.30
2023-03-30T20:11:41.736Z,19.40
2023-03-30T20:14:09.697Z,15.30
2023-03-30T20:16:37.485Z,17.20
2023-03-30T20:19:15.806Z,19.00
2023-03-30T20:21:47.027Z,19.10
2023-03-30T20:24:14.997Z,14.80
2023-03-30T20:26:42.793Z,22.40
2023-03-30T20:29:10.831Z,16.90
2023-03-30T20:31:38.835Z,21.90
2023-03-30T20:34:07.608Z,22.40
2023-03-30T20:36:35.866Z,25.80
2023-03-30T20:39:05.889Z,16.30
2023-03-30T20:41:38.445Z,16.60
2023-03-30T20:44:11.324Z,13.70
2023-03-30T20:46:43.279Z,11.40
2023-03-30T20:49:12.067Z,13.00
2023-03-30T20:51:40.292Z,13.50
2023-03-30T20:54:08.594Z,8.30
2023-03-30T20:56:36.743Z,9.00
2023-03-30T20:59:08.511Z,9.90
2023-03-30T21:01:38.926Z,8.90
2023-03-30T21:04:08.122Z,10.70
2023-03-30T21:06:36.008Z,13.40
2023-03-30T21:09:07.136Z,6.90
2023-03-30T21:11:38.868Z,16.40
2023-03-30T21:14:08.698Z,9.10
2023-03-30T21:16:37.970Z,14.40
2023-03-30T21:19:06.124Z,13.20
2023-03-30T21:21:35.225Z,12.70
2023-03-30T21:24:04.913Z,12.70
2023-03-30T21:26:33.068Z,23.30
2023-03-30T21:29:01.512Z,27.50
2023-03-30T21:31:29.429Z,29.70
2023-03-30T21:33:57.327Z,20.50
2023-03-30T21:36:25.405Z,23.60
2023-03-30T21:38:53.625Z,22.30
2023-03-30T21:41:23.739Z,15.90
2023-03-30T21:43:51.968Z,20.10
2023-03-30T21:46:22.308Z,17.60
2023-03-30T21:48:53.744Z,17.80
2023-03-30T21:51:26.351Z,14.10
2023-03-30T21:53:55.798Z,15.20
2023-03-30T21:56:26.605Z,17.50
2023-03-30T21:58:54.483Z,17.30
2023-03-30T22:01:24.178Z,15.80
2023-03-30T22:03:54.133Z,21.20
2023-03-30T22:06:22.921Z,16.30
2023-03-30T22:09:13.308Z,17.70
2023-03-30T22:11:43.226Z,18.10
2023-03-30T22:14:38.123Z,18.70
2023-03-30T22:18:10.140Z,22.90
2023-03-30T22:21:44.152Z,16.70
2023-03-30T22:25:27.039Z,18.90
2023-03-30T22:28:56.173Z,13.40
2023-03-30T22:32:30.191Z,12.20
2023-03-30T22:36:01.125Z,12.50
2023-03-30T22:39:34.139Z,15.00
2023-03-30T22:43:07.134Z,9.50
2023-03-30T22:46:36.241Z,13.30
2023-03-30T22:50:13.291Z,13.30
2023-03-30T22:53:57.163Z,10.70
2023-03-30T22:57:29.118Z,28.40
2023-03-30T23:01:36.813Z,8.70
2023-03-30T23:05:19.122Z,11.60
2023-03-30T23:09:13.157Z,11.20
2023-03-30T23:13:10.074Z,12.90
2023-03-30T23:16:58.194Z,9.20
2023-03-30T23:20:59.426Z,13.10
2023-03-30T23:25:03.186Z,16.70
2023-03-30T23:28:32.111Z,8.30
2023-03-30T23:32:08.031Z,12.10
2023-03-30T23:35:47.193Z,11.00
2023-03-30T23:39:11.199Z,6.80
2023-03-30T23:41:39.525Z,11.60
2023-03-30T23:44:07.509Z,10.40
2023-03-30T23:46:35.817Z,9.20
2023-03-30T23:49:03.784Z,11.90
2023-03-30T23:51:31.652Z,8.10
2023-03-30T23:54:05.907Z,11.20
2023-03-30T23:56:35.455Z,7.50
2023-03-30T23:59:04.564Z,9.40
